Time;durP1;ratioP1;P1;durP2;ratioP2;P2;SDS_P1;SDS_P2;PMS_P1;PMS_P2;Temp;Humidity;BMP_temperature;BMP_pressure;BME280_temperature;BME280_humidity;BME280_pressure;Samples;Min_cycle;Max_cycle;Signal;HPM_P1;HPM_P2
2023/05/01 00:02:11;;;;;;;4.00;3.13;;;;;;;12.05;87.52;100507.97;5106563;28;20051;-91
2023/05/01 00:04:45;;;;;;;7.13;3.42;;;;;;;11.95;87.94;100485.50;5111274;28;20050;-91
2023/05/01 00:07:16;;;;;;;5.37;3.40;;;;;;;12.01;88.08;100503.75;5106708;28;20087;-90
2023/05/01 00:09:44;;;;;;;4.05;3.22;;;;;;;11.92;87.85;100488.31;5123289;28;20093;-91
2023/05/01 00:12:12;;;;;;;6.18;3.17;;;;;;;11.83;88.17;100475.47;5126222;28;20063;-91
2023/05/01 00:14:40;;;;;;;5.70;3.08;;;;;;;11.97;88.69;100498.66;5127124;28;20096;-91
2023/05/01 00:17:08;;;;;;;4.68;3.38;;;;;;;11.96;88.49;100491.66;5120892;28;20371;-90
2023/05/01 00:19:36;;;;;;;3.65;2.88;;;;;;;11.85;89.00;100460.34;5109128;28;20048;-91
2023/05/01 00:22:02;;;;;;;6.82;3.20;;;;;;;12.00;88.20;100495.84;5091465;28;20066;-91
2023/05/01 00:24:31;;;;;;;3.35;2.72;;;;;;;11.96;88.68;100479.25;5109719;28;20055;-90
2023/05/01 00:27:03;;;;;;;4.00;2.85;;;;;;;11.67;87.95;100443.53;5108765;28;20066;-90
2023/05/01 00:29:32;;;;;;;5.35;2.58;;;;;;;11.90;88.04;100483.06;5115344;28;20044;-89
2023/05/01 00:31:59;;;;;;;4.15;3.17;;;;;;;11.91;87.80;100481.28;5110704;28;20059;-89
2023/05/01 00:34:26;;;;;;;5.53;2.90;;;;;;;11.87;88.84;100482.38;5111113;28;20047;-88
2023/05/01 00:36:53;;;;;;;3.97;3.10;;;;;;;11.84;88.04;100475.41;5112068;28;20078;-90
2023/05/01 00:39:19;;;;;;;6.43;3.33;;;;;;;11.83;88.63;100472.84;5107262;28;20044;-90
2023/05/01 00:41:47;;;;;;;6.18;3.33;;;;;;;11.88;88.95;100470.81;5102010;28;20117;-92
2023/05/01 00:44:15;;;;;;;4.45;2.90;;;;;;;11.87;88.29;100479.72;5112488;28;20085;-91
2023/05/01 00:46:42;;;;;;;6.45;3.38;;;;;;;11.82;88.56;100471.13;5100798;28;20103;-92
2023/05/01 00:49:10;;;;;;;3.88;3.20;;;;;;;11.73;88.77;100464.47;5117996;28;20089;-90
2023/05/01 00:51:37;;;;;;;6.30;3.38;;;;;;;11.80;88.22;100471.22;5112614;28;20028;-92
2023/05/01 00:54:04;;;;;;;6.82;3.50;;;;;;;11.73;88.53;100458.28;5075847;28;20049;-91
2023/05/01 00:56:32;;;;;;;4.78;3.45;;;;;;;11.78;88.81;100464.28;5090970;28;20044;-91
2023/05/01 00:58:59;;;;;;;5.05;3.70;;;;;;;11.76;88.73;100461.69;5083338;28;20052;-92
2023/05/01 01:01:28;;;;;;;5.47;3.30;;;;;;;11.59;88.85;100428.03;5083152;28;20052;-91
2023/05/01 01:03:55;;;;;;;4.38;3.40;;;;;;;11.79;89.26;100450.06;5085542;28;20074;-91
2023/05/01 01:07:00;;;;;;;6.18;3.55;;;;;;;11.74;89.97;100441.44;5076008;28;20053;-90
2023/05/01 01:09:48;;;;;;;4.72;3.17;;;;;;;11.74;90.53;100430.84;5035977;28;20040;-91
2023/05/01 01:12:42;;;;;;;4.88;3.42;;;;;;;11.82;89.50;100442.78;5064969;28;20131;-92
2023/05/01 01:15:22;;;;;;;3.90;3.47;;;;;;;11.86;89.08;100440.84;5087409;28;20055;-91
2023/05/01 01:17:56;;;;;;;6.38;3.60;;;;;;;11.85;89.30;100428.50;5071932;28;20048;-92
2023/05/01 01:20:49;;;;;;;5.22;3.45;;;;;;;11.87;89.02;100431.94;5070203;28;20040;-92
2023/05/01 01:23:52;;;;;;;5.85;3.40;;;;;;;11.79;89.13;100432.34;5067745;28;20055;-90
2023/05/01 01:26:52;;;;;;;5.15;4.03;;;;;;;11.42;89.87;100376.78;5082511;28;20426;-92
2023/05/01 01:29:49;;;;;;;7.55;4.13;;;;;;;11.71;90.45;100426.53;5083946;28;20098;-92
2023/05/01 01:32:43;;;;;;;10.05;4.57;;;;;;;11.65;90.53;100432.13;5084948;28;20053;-92
2023/05/01 01:35:26;;;;;;;5.40;3.83;;;;;;;11.56;92.27;100424.66;5071371;28;20024;-93
2023/05/01 01:38:18;;;;;;;5.80;4.28;;;;;;;11.53;93.46;100424.81;5050579;28;20079;-92
2023/05/01 01:41:08;;;;;;;5.72;4.20;;;;;;;11.51;94.73;100421.38;5082559;28;20048;-92
2023/05/01 01:43:41;;;;;;;6.55;4.35;;;;;;;11.45;94.35;100419.91;5063419;28;20358;-89
2023/05/01 01:46:16;;;;;;;6.35;4.15;;;;;;;11.38;95.43;100413.19;5082269;28;20044;-91
2023/05/01 01:48:47;;;;;;;5.97;4.72;;;;;;;11.26;96.58;100400.53;5079323;28;20106;-93
2023/05/01 01:51:17;;;;;;;6.10;4.15;;;;;;;11.21;97.90;100405.22;5063791;28;20036;-91
2023/05/01 01:53:52;;;;;;;6.68;4.43;;;;;;;11.04;98.18;100378.66;5093245;28;20068;-91
2023/05/01 01:56:21;;;;;;;6.30;4.50;;;;;;;11.11;98.72;100406.59;5084113;28;20144;-92
2023/05/01 01:58:51;;;;;;;5.85;4.07;;;;;;;11.03;99.88;100396.34;5086828;28;20452;-93
2023/05/01 02:01:22;;;;;;;5.72;4.35;;;;;;;10.90;100.00;100393.44;5068784;28;20083;-93
2023/05/01 02:03:51;;;;;;;6.18;4.68;;;;;;;10.71;100.00;100367.91;5084177;28;20040;-92
2023/05/01 02:06:20;;;;;;;5.43;4.40;;;;;;;10.73;100.00;100377.50;5043297;28;20556;-92
2023/05/01 02:08:52;;;;;;;9.38;4.80;;;;;;;10.75;100.00;100390.69;5101632;28;20044;-88
2023/05/01 02:11:24;;;;;;;7.30;4.63;;;;;;;10.82;100.00;100405.38;5102318;28;20040;-90
2023/05/01 02:13:53;;;;;;;6.30;4.32;;;;;;;10.80;100.00;100399.28;5099190;28;20040;-89
2023/05/01 02:16:24;;;;;;;6.20;4.60;;;;;;;10.75;100.00;100394.19;5099201;28;20044;-90
2023/05/01 02:18:55;;;;;;;9.05;4.93;;;;;;;10.70;100.00;100398.00;5101342;28;20044;-90
2023/05/01 02:21:35;;;;;;;8.95;5.63;;;;;;;10.43;100.00;100363.94;5099244;28;20391;-91
2023/05/01 02:24:05;;;;;;;6.05;4.78;;;;;;;10.51;100.00;100387.41;5099938;28;20054;-90
2023/05/01 02:26:39;;;;;;;9.88;4.93;;;;;;;10.38;100.00;100387.13;5098199;28;20109;-89
2023/05/01 02:29:06;;;;;;;6.90;4.90;;;;;;;10.50;100.00;100398.94;5099164;28;20040;-91
2023/05/01 02:31:39;;;;;;;11.60;4.93;;;;;;;10.40;100.00;100390.53;5100402;28;20055;-91
2023/05/01 02:34:06;;;;;;;6.90;4.57;;;;;;;10.24;100.00;100378.09;5102798;28;20048;-90
2023/05/01 02:36:32;;;;;;;7.75;5.20;;;;;;;10.33;100.00;100394.41;5095613;28;20052;-91
2023/05/01 02:39:00;;;;;;;7.18;5.10;;;;;;;10.27;100.00;100386.75;5099792;28;20127;-90
2023/05/01 02:41:27;;;;;;;7.25;5.00;;;;;;;10.21;100.00;100380.91;5104042;28;20051;-90
2023/05/01 02:44:00;;;;;;;7.63;4.78;;;;;;;10.27;100.00;100393.81;5112415;28;20040;-91
2023/05/01 02:46:36;;;;;;;8.60;5.10;;;;;;;10.22;100.00;100383.47;5100548;28;20096;-90
2023/05/01 02:49:13;;;;;;;8.18;5.00;;;;;;;10.24;100.00;100388.66;5103912;28;20044;-89
2023/05/01 02:51:42;;;;;;;9.73;5.32;;;;;;;10.20;100.00;100393.28;5097764;28;20044;-89
2023/05/01 02:54:15;;;;;;;6.68;4.68;;;;;;;10.18;100.00;100392.44;5097119;28;20047;-90
2023/05/01 02:56:46;;;;;;;9.48;5.07;;;;;;;10.09;100.00;100377.81;5099589;28;20097;-91
2023/05/01 02:59:13;;;;;;;7.47;4.93;;;;;;;10.04;100.00;100371.91;5099828;28;20380;-91
2023/05/01 03:01:42;;;;;;;8.30;4.75;;;;;;;10.03;100.00;100383.41;5099483;28;20071;-90
2023/05/01 03:04:12;;;;;;;8.18;5.55;;;;;;;10.01;100.00;100371.16;5099840;28;20083;-90
2023/05/01 03:06:38;;;;;;;8.80;5.70;;;;;;;9.96;100.00;100378.44;5091985;28;20068;-91
2023/05/01 03:09:06;;;;;;;6.03;5.43;;;;;;;9.80;100.00;100357.09;5064442;28;20040;-91
2023/05/01 03:11:35;;;;;;;12.10;6.13;;;;;;;9.91;100.00;100365.44;5068316;28;20060;-92
2023/05/01 03:14:02;;;;;;;10.25;5.90;;;;;;;9.85;100.00;100361.28;5065574;28;20040;-92
2023/05/01 03:16:31;;;;;;;10.95;5.80;;;;;;;9.88;100.00;100372.66;5066278;28;20136;-92
2023/05/01 03:19:00;;;;;;;7.88;5.85;;;;;;;9.80;100.00;100359.75;5070873;28;20044;-92
2023/05/01 03:21:28;;;;;;;7.55;5.22;;;;;;;9.74;100.00;100352.09;5073868;28;20100;-91
2023/05/01 03:23:55;;;;;;;6.80;5.40;;;;;;;9.69;100.00;100343.50;5093815;28;20045;-91
2023/05/01 03:26:24;;;;;;;9.65;6.30;;;;;;;9.80;100.00;100365.91;5078538;28;20075;-92
2023/05/01 03:28:52;;;;;;;8.85;5.82;;;;;;;9.77;100.00;100362.53;5076109;28;20037;-92
2023/05/01 03:31:20;;;;;;;9.88;5.65;;;;;;;9.68;100.00;100350.59;5089088;28;20041;-91
2023/05/01 03:33:50;;;;;;;8.07;5.43;;;;;;;9.87;100.00;100374.44;5069318;28;20051;-92
2023/05/01 03:36:16;;;;;;;8.63;5.50;;;;;;;9.85;100.00;100365.72;5064926;28;20051;-89
2023/05/01 03:38:44;;;;;;;6.15;5.35;;;;;;;9.83;100.00;100362.28;5065630;28;20044;-89
2023/05/01 03:41:10;;;;;;;7.85;5.40;;;;;;;9.87;100.00;100363.00;5070901;28;20053;-91
2023/05/01 03:43:41;;;;;;;8.20;6.43;;;;;;;9.87;100.00;100371.78;5073478;28;20048;-90
2023/05/01 03:46:08;;;;;;;10.00;5.15;;;;;;;9.85;100.00;100361.28;5070884;28;20068;-92
2023/05/01 03:48:35;;;;;;;6.60;5.10;;;;;;;9.82;100.00;100352.63;5091189;28;20051;-90
2023/05/01 03:51:03;;;;;;;8.30;5.30;;;;;;;9.81;100.00;100348.25;5091936;28;20044;-91
2023/05/01 03:53:32;;;;;;;7.70;5.03;;;;;;;9.75;100.00;100330.03;5078124;28;20045;-91
2023/05/01 03:56:00;;;;;;;7.15;4.80;;;;;;;9.92;100.00;100361.84;5095214;28;20067;-90
2023/05/01 03:58:27;;;;;;;7.45;5.05;;;;;;;9.85;100.00;100345.41;5092493;28;20109;-90
2023/05/01 04:00:59;;;;;;;6.85;4.85;;;;;;;9.90;100.00;100350.50;5068472;28;20465;-90
2023/05/01 04:03:29;;;;;;;7.85;4.85;;;;;;;9.85;100.00;100348.06;5068850;28;20047;-91
2023/05/01 04:05:58;;;;;;;7.57;4.93;;;;;;;9.84;100.00;100341.03;5053654;28;20052;-90
2023/05/01 04:08:28;;;;;;;7.72;4.80;;;;;;;9.83;100.00;100352.56;5071298;28;20047;-91
2023/05/01 04:10:55;;;;;;;8.55;4.82;;;;;;;9.77;100.00;100342.22;5088265;28;20048;-90
2023/05/01 04:13:26;;;;;;;6.93;5.20;;;;;;;9.79;100.00;100350.97;5089245;28;20048;-91
2023/05/01 04:15:54;;;;;;;7.05;5.03;;;;;;;9.65;100.00;100329.56;5112354;28;20103;-91
2023/05/01 04:18:21;;;;;;;6.07;4.68;;;;;;;9.63;100.00;100333.19;5091249;28;20524;-91
2023/05/01 04:20:54;;;;;;;7.03;5.32;;;;;;;9.75;100.00;100352.03;5103031;28;20044;-90
2023/05/01 04:23:25;;;;;;;6.85;4.88;;;;;;;9.72;100.00;100351.31;5102067;28;20124;-90
2023/05/01 04:25:53;;;;;;;8.10;4.97;;;;;;;9.76;100.00;100352.88;5101890;28;20051;-91
2023/05/01 04:28:29;;;;;;;5.47;4.97;;;;;;;9.77;100.00;100351.94;5101393;28;20460;-91
2023/05/01 04:30:59;;;;;;;6.55;5.10;;;;;;;9.70;100.00;100339.94;5103700;28;20044;-91
2023/05/01 04:33:30;;;;;;;5.97;4.30;;;;;;;9.62;100.00;100320.91;5115730;28;20035;-92
2023/05/01 04:35:58;;;;;;;8.35;5.15;;;;;;;9.80;100.00;100357.09;5118294;28;20036;-91
2023/05/01 04:38:31;;;;;;;7.95;4.80;;;;;;;9.80;100.00;100346.53;5091048;28;20044;-91
2023/05/01 04:41:01;;;;;;;8.55;5.07;;;;;;;9.81;100.00;100345.59;5077861;28;20113;-93
2023/05/01 04:43:29;;;;;;;8.43;4.75;;;;;;;9.77;100.00;100336.94;5065435;28;20044;-90
2023/05/01 04:46:00;;;;;;;5.95;4.63;;;;;;;9.91;100.00;100354.00;5096626;28;20189;-91
2023/05/01 04:48:28;;;;;;;7.35;5.00;;;;;;;9.90;100.00;100344.34;5096270;28;20091;-91
2023/05/01 04:50:56;;;;;;;6.75;4.72;;;;;;;9.98;100.00;100358.94;5054964;28;20071;-90
2023/05/01 04:53:24;;;;;;;7.00;4.95;;;;;;;9.99;100.00;100357.16;5059780;28;20108;-90
2023/05/01 04:55:54;;;;;;;6.97;4.88;;;;;;;9.90;100.00;100337.28;5188679;23;20107;-90
2023/05/01 04:58:20;;;;;;;7.70;5.47;;;;;;;10.09;100.00;100353.16;5054793;28;20061;-91
2023/05/01 05:04:32;;;;;;;7.60;5.13;;;;;;;10.13;100.00;100349.44;4999160;28;20104;-90
2023/05/01 05:07:04;;;;;;;9.43;5.20;;;;;;;10.09;100.00;100335.50;5047833;28;20049;-92
2023/05/01 05:09:33;;;;;;;6.40;5.30;;;;;;;10.13;100.00;100350.31;5055198;28;20083;-92
2023/05/01 05:11:59;;;;;;;7.50;5.43;;;;;;;10.16;100.00;100351.94;5056780;28;20042;-90
2023/05/01 05:14:27;;;;;;;6.47;5.13;;;;;;;10.07;100.00;100323.28;5057151;28;20049;-92
2023/05/01 05:16:57;;;;;;;6.17;5.03;;;;;;;10.17;100.00;100338.66;5047176;28;20132;-91
2023/05/01 05:19:34;;;;;;;8.38;5.07;;;;;;;10.20;100.00;100350.94;5041818;28;20793;-91
2023/05/01 05:22:03;;;;;;;7.07;5.28;;;;;;;10.16;100.00;100334.28;5046426;28;20101;-90
2023/05/01 05:24:32;;;;;;;8.83;5.20;;;;;;;10.29;100.00;100358.44;5042665;28;20081;-91
2023/05/01 05:27:09;;;;;;;7.05;5.10;;;;;;;10.35;100.00;100360.81;5048646;28;20061;-91
2023/05/01 05:29:49;;;;;;;8.25;5.78;;;;;;;10.44;100.00;100352.41;5056479;28;20044;-91
2023/05/01 05:32:22;;;;;;;9.40;5.35;;;;;;;10.49;100.00;100354.84;5057865;28;20045;-91
2023/05/01 05:34:48;;;;;;;7.53;5.10;;;;;;;10.52;100.00;100336.19;5042377;28;20097;-89
2023/05/01 05:37:19;;;;;;;8.43;5.78;;;;;;;10.74;100.00;100342.16;5030975;28;20069;-90
2023/05/01 05:39:59;;;;;;;8.60;4.93;;;;;;;10.68;100.00;100323.94;5041024;28;20049;-90
2023/05/01 05:42:28;;;;;;;7.75;4.72;;;;;;;10.89;100.00;100351.13;5028184;28;20049;-92
2023/05/01 05:44:59;;;;;;;8.77;5.07;;;;;;;10.98;100.00;100348.06;5043482;28;20049;-89
2023/05/01 05:47:30;;;;;;;7.88;5.28;;;;;;;11.00;100.00;100340.03;5010570;28;20052;-92
2023/05/01 05:49:59;;;;;;;6.82;5.00;;;;;;;11.00;100.00;100342.69;5041893;28;20045;-90
2023/05/01 05:52:26;;;;;;;7.78;5.03;;;;;;;11.05;100.00;100345.94;5054732;28;20041;-92
2023/05/01 05:54:57;;;;;;;9.07;4.95;;;;;;;11.06;99.74;100334.41;5054816;28;20041;-89
2023/05/01 05:57:24;;;;;;;7.57;5.03;;;;;;;11.15;98.45;100336.63;5056672;28;20045;-90
2023/05/01 05:59:51;;;;;;;8.40;5.03;;;;;;;11.32;97.24;100335.75;5051805;28;20079;-90
2023/05/01 06:02:25;;;;;;;8.23;5.05;;;;;;;11.45;95.77;100329.75;5053486;28;20046;-90
2023/05/01 06:05:09;;;;;;;9.77;5.07;;;;;;;11.59;93.44;100332.53;5047771;28;20049;-91
2023/05/01 06:08:01;;;;;;;6.13;4.22;;;;;;;11.64;92.68;100323.50;5034313;28;20124;-92
2023/05/01 06:10:32;;;;;;;7.32;5.05;;;;;;;11.63;90.42;100304.06;5049267;28;20425;-91
2023/05/01 06:13:19;;;;;;;7.65;4.22;;;;;;;11.90;90.04;100326.50;5039633;28;20052;-92
2023/05/01 06:15:49;;;;;;;7.55;4.97;;;;;;;12.10;87.43;100333.41;5052546;28;20071;-92
2023/05/01 06:18:25;;;;;;;11.35;5.28;;;;;;;12.19;86.69;100326.72;5053425;28;20050;-91
2023/05/01 06:20:56;;;;;;;6.95;4.70;;;;;;;12.28;84.73;100327.06;5050653;28;20076;-90
2023/05/01 06:23:30;;;;;;;6.60;5.00;;;;;;;12.38;82.88;100319.47;5031369;28;20052;-92
2023/05/01 06:26:03;;;;;;;7.00;4.50;;;;;;;12.54;81.00;100315.00;5051658;28;20049;-91
2023/05/01 06:28:37;;;;;;;6.80;4.55;;;;;;;12.81;79.97;100320.56;5048892;28;20045;-91
2023/05/01 06:31:05;;;;;;;6.53;4.50;;;;;;;12.90;77.92;100298.78;5049967;28;20101;-91
2023/05/01 06:33:36;;;;;;;6.85;4.20;;;;;;;13.09;76.40;100300.34;5050387;28;20072;-92
2023/05/01 06:36:05;;;;;;;8.10;4.35;;;;;;;13.29;74.66;100310.69;5035528;28;20038;-90
2023/05/01 06:38:33;;;;;;;9.10;4.88;;;;;;;13.10;72.11;100281.66;5047481;28;20053;-90
2023/05/01 06:45:16;;;;;;;6.32;4.40;;;;;;;13.32;73.82;100318.50;5015267;28;20053;-91
2023/05/01 06:47:50;;;;;;;6.40;4.50;;;;;;;13.36;72.95;100313.84;4997546;28;20042;-92
2023/05/01 06:50:27;;;;;;;7.43;4.82;;;;;;;13.36;73.63;100296.09;4990464;28;20114;-91
2023/05/01 06:52:55;;;;;;;7.28;4.80;;;;;;;13.48;72.64;100319.28;5006783;28;20137;-92
2023/05/01 06:55:22;;;;;;;5.95;4.30;;;;;;;13.49;73.42;100317.50;4989780;28;20119;-91
2023/05/01 06:58:05;;;;;;;8.43;4.85;;;;;;;13.58;73.33;100312.47;4989410;28;20049;-91
2023/05/01 07:05:26;;;;;;;8.23;4.82;;;;;;;13.92;69.53;100310.41;4972373;29;20042;-94
2023/05/01 07:08:50;;;;;;;7.63;4.45;;;;;;;13.65;68.78;100260.59;5184293;22;20081;-93
2023/05/01 07:11:37;;;;;;;5.45;4.70;;;;;;;13.64;68.80;100250.91;5012039;28;20042;-91
2023/05/01 07:14:25;;;;;;;7.07;5.20;;;;;;;13.97;69.94;100279.03;4995116;28;20066;-94
2023/05/01 07:17:09;;;;;;;6.82;4.75;;;;;;;14.19;69.15;100302.47;5016889;28;20074;-92
2023/05/01 07:19:59;;;;;;;7.82;5.00;;;;;;;14.00;69.73;100245.09;5013099;28;20585;-94
2023/05/01 07:22:33;;;;;;;7.70;4.40;;;;;;;14.17;67.32;100243.97;5008892;28;20069;-93
2023/05/01 07:25:25;;;;;;;6.20;4.85;;;;;;;14.29;64.13;100221.91;5017217;28;20042;-93
2023/05/01 07:28:07;;;;;;;7.32;4.75;;;;;;;14.90;62.50;100271.19;4971442;28;20043;-93
2023/05/01 07:31:38;;;;;;;8.07;4.88;;;;;;;15.15;60.37;100293.53;4977588;29;20049;-94
2023/05/01 07:35:06;;;;;;;6.88;4.80;;;;;;;14.84;59.64;100263.59;4974739;28;20075;-93
2023/05/01 07:38:23;;;;;;;8.98;4.50;;;;;;;14.82;58.42;100269.97;4978711;28;20115;-94
2023/05/01 07:41:33;;;;;;;8.25;4.55;;;;;;;15.30;57.87;100296.03;4970703;28;20078;-94
2023/05/01 07:44:19;;;;;;;8.02;4.90;;;;;;;15.38;56.87;100300.84;4957573;29;20035;-93
2023/05/01 07:47:14;;;;;;;7.35;4.78;;;;;;;15.36;57.55;100271.59;4986066;28;20045;-93
2023/05/01 07:50:21;;;;;;;6.63;4.93;;;;;;;15.69;55.38;100283.59;5293475;23;20069;-92
2023/05/01 07:53:31;;;;;;;7.22;4.70;;;;;;;16.10;53.54;100294.88;5260672;22;20049;-94
2023/05/01 07:56:18;;;;;;;6.05;4.40;;;;;;;16.32;52.75;100293.34;5033046;28;20037;-93
2023/05/01 07:59:08;;;;;;;8.38;4.93;;;;;;;16.34;50.11;100294.09;5060197;28;20025;-95
2023/05/01 08:02:00;;;;;;;6.40;4.70;;;;;;;16.17;50.69;100279.28;5053716;28;20046;-94
2023/05/01 08:04:52;;;;;;;9.25;5.18;;;;;;;16.07;50.90;100292.41;5059829;28;20049;-93
2023/05/01 08:08:32;;;;;;;7.22;4.40;;;;;;;15.95;52.29;100290.63;5354038;22;20049;-92
2023/05/01 08:11:22;;;;;;;8.52;4.47;;;;;;;15.87;51.48;100274.31;5058711;28;20041;-92
2023/05/01 08:14:23;;;;;;;6.47;4.45;;;;;;;15.92;51.00;100273.97;5058745;28;20044;-92
2023/05/01 08:17:52;;;;;;;7.35;5.32;;;;;;;15.96;49.88;100288.81;5054487;28;20045;-92
2023/05/01 08:20:27;;;;;;;6.70;4.60;;;;;;;15.71;51.21;100263.00;5054287;28;20053;-92
2023/05/01 08:24:25;;;;;;;7.80;4.72;;;;;;;16.00;52.30;100293.84;4484514;27;19892887;-92
2023/05/01 08:27:16;;;;;;;7.80;4.90;;;;;;;16.07;50.68;100273.72;5176841;27;20027;-93
2023/05/01 08:29:57;;;;;;;9.32;5.00;;;;;;;16.25;50.35;100281.38;5176723;27;20046;-93
2023/05/01 08:32:27;;;;;;;6.53;4.72;;;;;;;16.19;49.47;100272.00;5175421;27;20031;-93
2023/05/01 08:35:10;;;;;;;6.18;4.68;;;;;;;16.17;49.56;100273.06;5175583;27;20049;-92
2023/05/01 08:41:34;;;;;;;8.50;5.10;;;;;;;16.47;49.35;100271.69;5176571;27;20052;-93
2023/05/01 08:44:21;;;;;;;8.02;4.78;;;;;;;16.55;49.74;100268.44;5160142;27;20071;-94
2023/05/01 08:47:18;;;;;;;6.23;4.87;;;;;;;16.55;47.93;100251.56;5174629;27;20072;-93
2023/05/01 08:50:10;;;;;;;6.65;4.75;;;;;;;16.71;47.88;100270.88;5176334;27;20088;-93
2023/05/01 08:52:59;;;;;;;8.02;5.43;;;;;;;16.64;48.04;100256.28;5175116;27;20042;-95
2023/05/01 08:55:36;;;;;;;9.85;5.03;;;;;;;16.68;47.89;100268.47;5166657;27;20042;-93
2023/05/01 08:58:31;;;;;;;6.80;4.55;;;;;;;16.72;47.99;100273.44;5165642;27;20062;-94
2023/05/01 09:01:14;;;;;;;7.28;5.32;;;;;;;16.84;48.23;100264.50;5162322;27;20046;-94
2023/05/01 09:03:49;;;;;;;7.00;5.05;;;;;;;16.55;48.55;100211.47;5147168;27;20050;-93
2023/05/01 09:10:13;;;;;;;6.63;4.63;;;;;;;17.05;48.14;100263.84;5170402;27;20050;-92
2023/05/01 09:13:01;;;;;;;7.28;5.68;;;;;;;17.05;48.22;100270.06;5168701;27;20098;-94
2023/05/01 09:19:46;;;;;;;8.43;5.13;;;;;;;17.40;46.73;100251.31;5174343;27;20095;-92
2023/05/01 09:22:19;;;;;;;8.07;4.78;;;;;;;17.65;46.57;100257.44;5171762;27;20133;-92
2023/05/01 09:25:02;;;;;;;10.00;5.20;;;;;;;17.60;46.55;100262.28;5156696;27;20034;-93
2023/05/01 09:28:07;;;;;;;7.45;5.00;;;;;;;17.40;47.61;100258.47;5075115;28;20041;-92
2023/05/01 09:30:48;;;;;;;8.20;5.32;;;;;;;17.24;47.81;100228.53;5087033;28;20222;-93
2023/05/01 09:33:42;;;;;;;9.25;5.07;;;;;;;17.38;49.51;100255.91;5085367;28;20045;-91
2023/05/01 09:37:01;;;;;;;9.00;5.38;;;;;;;17.22;49.60;100219.75;5077099;28;20164;-93
2023/05/01 09:40:40;;;;;;;9.27;4.97;;;;;;;17.71;47.25;100255.16;5053377;28;20084;-93
2023/05/01 09:44:02;;;;;;;10.77;5.80;;;;;;;17.78;47.14;100251.03;5023551;28;20072;-94
2023/05/01 09:47:27;;;;;;;9.68;5.22;;;;;;;17.81;47.39;100252.59;5069671;28;20173;-93
2023/05/01 09:51:11;;;;;;;6.80;5.53;;;;;;;17.86;47.62;100239.69;5066117;28;20076;-92
2023/05/01 09:54:14;;;;;;;7.03;5.18;;;;;;;17.99;47.06;100231.53;5065855;28;20041;-94
2023/05/01 10:00:52;;;;;;;9.05;5.68;;;;;;;18.26;46.97;100236.50;5070757;28;20041;-95
2023/05/01 10:03:56;;;;;;;7.18;4.70;;;;;;;18.31;46.38;100237.81;5076601;28;20057;-95
2023/05/01 10:06:53;;;;;;;9.73;5.47;;;;;;;18.37;46.13;100233.78;5160259;27;20031;-93
2023/05/01 10:14:13;;;;;;;7.80;6.15;;;;;;;18.10;46.39;100231.53;5086856;28;20063;-94
2023/05/01 10:17:11;;;;;;;6.28;5.00;;;;;;;18.15;46.45;100221.28;5095540;27;20031;-93
2023/05/01 10:24:02;;;;;;;8.18;5.03;;;;;;;18.18;46.40;100226.38;5020486;23;20038;-94
2023/05/01 10:27:26;;;;;;;7.60;5.15;;;;;;;17.79;46.67;100182.22;5000345;28;20083;-93
2023/05/01 10:30:21;;;;;;;6.97;4.95;;;;;;;18.31;46.50;100223.56;4967102;28;20051;-93
2023/05/01 10:33:12;;;;;;;7.07;5.60;;;;;;;18.64;46.52;100230.69;4990951;28;20058;-95
2023/05/01 10:36:45;;;;;;;7.28;5.07;;;;;;;18.33;45.66;100203.69;4989745;28;20039;-95
2023/05/01 10:39:35;;;;;;;6.45;4.88;;;;;;;18.22;45.27;100190.31;4995561;28;20066;-93
2023/05/01 10:42:21;;;;;;;9.40;5.32;;;;;;;18.42;44.41;100215.47;4987797;28;20081;-94
2023/05/01 10:45:31;;;;;;;8.00;5.15;;;;;;;18.37;44.92;100183.69;4987121;28;20113;-93
2023/05/01 10:48:43;;;;;;;5.93;4.80;;;;;;;18.79;44.87;100216.84;4989379;28;20045;-92
2023/05/01 10:51:57;;;;;;;5.82;4.20;;;;;;;19.04;43.55;100215.66;4979423;28;20038;-93
2023/05/01 10:55:43;;;;;;;6.15;4.25;;;;;;;19.26;42.55;100214.66;4971544;28;20058;-95
2023/05/01 10:58:40;;;;;;;4.82;4.18;;;;;;;19.30;41.16;100208.03;4950761;29;20061;-96
2023/05/01 11:01:44;;;;;;;4.72;4.05;;;;;;;19.47;41.12;100196.69;4949830;29;20413;-93
2023/05/01 11:04:29;;;;;;;5.05;4.10;;;;;;;19.65;40.88;100204.16;4964018;29;20046;-94
2023/05/01 11:07:25;;;;;;;4.80;3.78;;;;;;;19.53;40.41;100157.72;4965998;28;20055;-94
2023/05/01 11:10:24;;;;;;;4.63;3.80;;;;;;;19.61;40.29;100160.59;4952544;29;20043;-94
2023/05/01 11:24:31;;;;;;;5.00;3.65;;;;;;;19.20;40.08;100105.94;5155747;27;20756;-94
2023/05/01 11:27:34;;;;;;;6.38;4.45;;;;;;;19.52;41.42;100169.44;5155122;27;20076;-94
2023/05/01 11:30:18;;;;;;;5.43;4.20;;;;;;;19.45;39.82;100127.97;5152364;28;20110;-94
2023/05/01 11:32:58;;;;;;;5.22;4.32;;;;;;;19.62;39.74;100113.94;5126335;28;20051;-94
2023/05/01 11:35:48;;;;;;;4.63;3.92;;;;;;;19.85;39.76;100144.09;5150817;28;20039;-93
2023/05/01 11:38:28;;;;;;;4.40;3.60;;;;;;;20.10;38.93;100166.97;5152026;27;20074;-94
2023/05/01 11:41:33;;;;;;;6.28;5.13;;;;;;;19.79;39.69;100081.03;5144983;28;20066;-93
2023/05/01 11:44:18;;;;;;;5.40;4.35;;;;;;;20.38;38.75;100158.13;5151806;28;20172;-92
2023/05/01 11:47:20;;;;;;;5.90;4.18;;;;;;;20.31;38.84;100165.84;5134604;28;20043;-93
2023/05/01 11:50:20;;;;;;;6.60;4.45;;;;;;;20.40;39.54;100166.91;5148921;27;20046;-93
2023/05/01 11:53:14;;;;;;;7.68;4.57;;;;;;;20.38;39.41;100158.13;5131629;28;20058;-93
2023/05/01 11:56:03;;;;;;;6.57;4.43;;;;;;;20.29;39.72;100161.63;5129125;28;20069;-95
2023/05/01 11:59:06;;;;;;;6.05;4.70;;;;;;;20.23;39.06;100156.78;5124256;28;20051;-93
2023/05/01 12:02:05;;;;;;;5.75;4.32;;;;;;;20.31;38.97;100154.25;5122495;28;20051;-95
2023/05/01 12:05:16;;;;;;;6.15;4.40;;;;;;;20.19;38.47;100115.03;5134971;28;20044;-93
2023/05/01 12:08:32;;;;;;;5.70;4.25;;;;;;;20.56;38.27;100151.06;5122831;28;20079;-93
2023/05/01 12:11:16;;;;;;;5.15;3.85;;;;;;;20.60;38.64;100130.09;5123748;28;20039;-93
2023/05/01 12:14:15;;;;;;;4.97;4.47;;;;;;;20.86;37.56;100141.97;5111437;28;20051;-94
2023/05/01 12:17:17;;;;;;;5.82;4.32;;;;;;;20.76;37.85;100111.53;5133469;28;20063;-95
2023/05/01 12:23:53;;;;;;;12.33;4.07;;;;;;;20.98;37.38;100134.56;5089587;28;20043;-93
2023/05/01 12:43:19;;;;;;;6.70;4.00;;;;;;;21.20;36.68;100147.75;5164908;27;20070;-94
2023/05/01 12:46:00;;;;;;;;;;;;;;;21.08;36.83;100154.25;5146219;27;20058;-93
2023/05/01 12:48:37;;;;;;;5.68;4.00;;;;;;;20.92;37.14;100127.94;5139117;27;19915;-94
2023/05/01 12:51:21;;;;;;;4.43;4.03;;;;;;;20.97;37.04;100119.41;5160604;27;20043;-94
2023/05/01 12:54:36;;;;;;;5.22;4.13;;;;;;;20.95;36.63;100111.47;5120703;28;20052;-92
2023/05/01 12:57:33;;;;;;;4.43;3.72;;;;;;;21.13;37.15;100138.50;5128161;28;20076;-93
2023/05/01 13:00:17;;;;;;;3.80;3.50;;;;;;;20.91;37.28;100109.25;5114236;28;20039;-94
2023/05/01 13:03:43;;;;;;;7.30;3.92;;;;;;;21.23;37.69;100142.06;5122267;28;20093;-94
2023/05/01 13:10:40;;;;;;;7.07;3.70;;;;;;;21.20;36.61;100141.50;5098023;28;20551;-93
2023/05/01 13:17:08;;;;;;;;;;;;;;;20.96;37.11;100131.16;5101076;28;20043;-92
2023/05/01 13:19:51;;;;;;;;;;;;;;;20.87;37.30;100130.22;5085138;28;19978;-94
2023/05/01 13:22:56;;;;;;;4.65;3.47;;;;;;;20.49;36.79;100077.28;5024138;28;19909;-93
2023/05/01 13:26:24;;;;;;;6.47;3.70;;;;;;;20.59;36.60;100096.13;5049526;28;20060;-93
2023/05/01 13:29:28;;;;;;;5.45;3.90;;;;;;;20.64;37.18;100118.88;5058788;28;20051;-93
2023/05/01 13:32:36;;;;;;;5.70;3.90;;;;;;;20.31;37.86;100109.38;5071425;28;20053;-93
2023/05/01 13:35:28;;;;;;;4.82;3.58;;;;;;;20.08;38.66;100099.03;5059132;28;20045;-90
2023/05/01 13:38:40;;;;;;;5.22;3.97;;;;;;;19.83;38.16;100062.81;5351262;22;20059;-93
2023/05/01 13:41:25;;;;;;;4.45;3.90;;;;;;;19.84;38.70;100092.22;5095941;28;20121;-93
2023/05/01 13:44:34;;;;;;;5.25;3.40;;;;;;;20.01;38.56;100128.31;5093942;28;20044;-95
2023/05/01 13:47:26;;;;;;;3.75;3.45;;;;;;;19.88;38.72;100122.34;5082289;28;20056;-94
2023/05/01 13:51:06;;;;;;;5.05;3.50;;;;;;;19.83;39.25;100132.69;5286573;22;20177;-92
2023/05/01 13:54:21;;;;;;;6.72;3.80;;;;;;;19.79;38.59;100124.03;5095072;28;20092;-93